Luis Mena

Chief Scout - Cobresal
6 Jan 2028
Thursday
Process

Personality

Adaptability (3) Ambition (4) Controversy (1) Loyalty (5) Pressure (2) Professionalism (7) Sportsmanship (19) Temperament (8)

Profile

Coaching Style Democratic
License Continental B
Determination 4
Man Management 9
Motivating 4
Discipline 4
Job Satisfaction
100%
Fatigue
0%
Role Chief Scout
Wage 46.1K p/w
Contract 14.03.2029

Performance

Behaviour Good
Training Effectiveness
23%
Player Development
30%
Injury Prevention
50%
Tactical Implementation
25%

Recent Events

Assessed a player now
Attended a recruitment meeting now
Recommended a transfer target now
Recommended a transfer target now
Attended a recruitment meeting 7d ago
Recommended a transfer target 7d ago
Recommended a transfer target 7d ago
Presented a dossier to the board 14d ago

Currently Monitoring

130
Player Club Status Ability Confidence Watched Last Observed Latest Vote
Tomás Fernández Aldosivi Active 114 / 113 40% 1 05.01.2028 -
Carlos Torres Orenburg Active 95 / 110 40% 1 05.01.2028 -
Martín Ojeda Orlando City Active 128 / 139 40% 1 05.01.2028 -
Sebastián Cocimano Nueva Chicago Active 120 / 114 40% 1 04.01.2028 -
Sebastián de Marco Fenix Active 101 / 96 40% 1 04.01.2028 -
Augusto Berrondo Tristán Suárez Active 108 / 113 40% 1 04.01.2028 -
Esteban da Silva Racing Active 116 / 113 40% 1 03.01.2028 -
Facundo Krüger FK Senica Active 128 / 119 40% 1 03.01.2028 -
Juan Rocca Gimnasia y Tiro Active 105 / 115 40% 1 03.01.2028 -
Joaquín Muñoz O'Higgins Negotiating 95 / 94 69% 1 20.12.2027 Approve
Santiago Gutiérrez Alvarado Active 108 / 97 40% 1 30.11.2027 -
Alejo Dramisino Atlanta Active 122 / 128 40% 1 30.11.2027 -
José Mercado Union Magdalena Active 108 / 103 40% 1 30.11.2027 -
Goga Kobiashvili Veres Negotiating 92 / 92 66% 1 01.06.2027 Approve
Edin Višća Progreso Negotiating 119 / 119 66% 1 01.06.2027 Approve
Aidomo Emakhu Oxford United Active 128 / 136 40% 2 31.05.2027 -
Alassana Jatta Notts County Active 96 / 118 40% 2 31.05.2027 -
Jaze Kabia Grimsby Town Active 98 / 86 40% 3 30.05.2027 -
Aaron Drinan Swindon Town Active 117 / 114 40% 5 29.05.2027 -
Ronan Hale Gillingham Active 102 / 118 40% 5 29.05.2027 -
Yousef Salech Cardiff City Active 126 / 124 40% 6 27.05.2027 -
Petar Musa Adana Demirspor Active 131 / 156 40% 2 27.05.2027 -
Richard Koné Queens Park Rangers Active 120 / 125 40% 5 26.05.2027 -
Santiago Pierotti Lecce Active 135 / 136 40% 3 26.05.2027 -
Shayne Lavery Cambridge United Active 118 / 99 40% 5 25.05.2027 -
Christian Saydee Wigan Athletic Active 106 / 122 40% 1 25.05.2027 -
Sam Nombe Milton Keynes Dons Active 101 / 109 40% 7 24.05.2027 -
Giacomo Zecca Torres Active 110 / 94 40% 2 23.05.2027 -
Malik Mothersille Stockport County Active 118 / 122 40% 3 22.05.2027 -
Jonathan Gyan Liberty Professionals Active 90 / 96 40% 2 22.05.2027 -
Aaron Collins Milton Keynes Dons Active 121 / 132 40% 2 21.05.2027 -
Daniel Udoh Salford City Active 109 / 111 40% 4 21.05.2027 -
Tyreece Campbell Charlton Athletic Active 121 / 107 40% 6 18.05.2027 -
Kelly Saravanan Salford City Active 112 / 110 40% 3 18.05.2027 -
Manuel Ospina Cortulua Active 131 / 132 40% 1 18.05.2027 -
Zian Flemming Ipswich Town Active 125 / 140 40% 4 17.05.2027 -
Josh Koroma Leyton Orient Active 105 / 97 40% 4 16.05.2027 -
Kyle Wootton Stockport County Active 109 / 115 40% 3 16.05.2027 -
Adam Idah Swansea City Active 130 / 116 40% 3 10.05.2027 -
Bojan Radulović Huddersfield Town Active 113 / 101 40% 4 09.05.2027 -
Andri Guðjohnsen Blackburn Rovers Active 121 / 137 40% 1 08.05.2027 -
Lorent Tolaj Plymouth Argyle Active 117 / 104 40% 6 06.05.2027 -
Marcus Browne AFC Wimbledon Active 111 / 112 40% 4 06.05.2027 -
Matteo Rover Reggiana Active 113 / 120 40% 1 06.05.2027 -
Dom Ballard Leyton Orient Active 133 / 139 40% 6 05.05.2027 -
Marezi Portsmouth Active 115 / 121 40% 3 05.05.2027 -
Kwame Opoku Asante Kotoko Active 108 / 102 40% 6 03.05.2027 -
Bismark Asante Ashanti Gold Active 97 / 84 40% 1 30.04.2027 -
Silvio Merkaj Vicenza Active 125 / 100 40% 1 29.04.2027 -
Giuseppe Di Serio Spezia Active 123 / 132 40% 2 28.04.2027 -
Stephen Humphrys Bradford City Active 115 / 94 40% 1 28.04.2027 -
Ekain Orobengoa Real Sociedad Active 106 / 105 40% 6 25.04.2027 -
Victor Torp Coventry City Active 139 / 124 40% 1 25.04.2027 -
Lee Bonis Chesterfield Active 110 / 98 40% 1 24.04.2027 -
Harry Leonard Peterborough United Active 115 / 128 40% 2 21.04.2027 -
Will Evans Mansfield Town Active 87 / 84 40% 1 21.04.2027 -
Martin Sekulić Ural Active 118 / 119 40% 5 17.04.2027 -
Robert Mizo Ashanti Gold Active 100 / 100 40% 3 17.04.2027 -
Adolfo Muñoz Ruch Active 109 / 111 40% 5 11.04.2027 -
Callum Lang Preston Active 106 / 108 40% 1 11.04.2027 -
Louis Appéré Cambridge United Active 104 / 113 40% 3 10.04.2027 -
Claudio Villagra Volos NPS Active 103 / 99 40% 4 09.04.2027 -
Jayden Wareham Barnet Active 98 / 105 40% 3 08.04.2027 -
Bradley Fink Wycombe Wanderers Active 97 / 103 40% 3 07.04.2027 -
Lewis McCann Fleetwood Town Active 110 / 87 40% 1 07.04.2027 -
Job Ochieng Real Sociedad Active 103 / 108 40% 4 04.04.2027 -
Guilherme Ankaragucu Active 140 / 112 40% 2 03.04.2027 -
Rayan Bournemouth Active 137 / 127 40% 1 03.04.2027 -
Harry Cornick AFC Wimbledon Active 100 / 115 40% 3 31.03.2027 -
Adnan Courtois KV Oostende Active 137 / 132 40% 6 28.03.2027 -
Callum Stead Barnet Active 84 / 95 40% 1 25.03.2027 -
Rocco Vata Watford Active 112 / 142 40% 1 24.03.2027 -
Tomás González Piast Active 128 / 124 40% 2 23.03.2027 -
Isaac Essien WAFA Active 98 / 100 40% 3 22.03.2027 -
Toni Fruk KV Mechelen Active 142 / 138 40% 1 17.03.2027 -
Friday Ubong Ashanti Gold Active 107 / 91 40% 1 16.03.2027 -
Niall Ennis Blackpool Active 113 / 119 40% 5 12.03.2027 -
Danyil Alefirenko Chornomorets Active 122 / 108 40% 4 12.03.2027 -
Davis Keillor-Dunn Wrexham Active 129 / 127 40% 4 10.03.2027 -
Iwan Morgan Grimsby Town Active 114 / 98 40% 2 08.03.2027 -
Elijah Adebayo Luton Town Active 137 / 106 40% 2 02.03.2027 -
Mees Rijks Bristol Rovers Active 107 / 101 40% 3 01.03.2027 -
Hany Mukhtar Spezia Active 140 / 151 40% 2 28.02.2027 -
Pedro Marques Apollon Active 114 / 123 40% 1 24.02.2027 -
Dany Mota Monza Active 133 / 146 40% 1 22.02.2027 -
Nathan Ordaz Metalist Active 123 / 115 40% 2 17.02.2027 -
Andrés Dieppa Metalurh Zaporizhzhia Active 84 / 96 40% 1 15.02.2027 -
Mathias Jørgensen Blackburn Rovers Active 123 / 134 40% 1 15.02.2027 -
Slobodan Tedić Akron Active 116 / 113 40% 1 13.02.2027 -
Erik Prekop Gornik Zabrze Active 142 / 128 40% 1 12.02.2027 -
Edarlyn Reyes Arsenal Tula Active 109 / 122 40% 1 09.02.2027 -
Samuel Kalu Botev Plovdiv Active 112 / 105 40% 1 05.02.2027 -
Vyacheslav Grulev Nizhniy Novgorod Active 117 / 123 40% 2 02.02.2027 -
Róbert Polievka MTK Budapest Active 109 / 124 40% 1 02.02.2027 -
Sam Bell Bristol City Active 108 / 105 40% 2 01.02.2027 -
Everton Bala Levski Active 126 / 116 40% 1 01.02.2027 -
Nicolás Luján Panserraikos Active 87 / 108 40% 1 31.01.2027 -
Leandro Godoy CSKA Sofia Active 123 / 121 40% 1 31.01.2027 -
Abdallah Gning Banik Ostrava Active 107 / 115 40% 1 28.01.2027 -
Bruno Gomes Valletta Active 95 / 106 40% 1 28.01.2027 -
Agustín Módica Gimnasia y Esgrima Active 116 / 113 40% 1 25.01.2027 -
Juan Cruz Martins Jihlava Active 108 / 118 40% 2 24.01.2027 -
Lincoln Spartak Subotica Active 99 / 103 40% 1 24.01.2027 -
Nicolás Contín MFK Ruzomberok Active 128 / 113 40% 1 23.01.2027 -
Kenan Dervišagić Floriana Active 110 / 86 40% 1 23.01.2027 -
Alexandr Yushin Torpedo Moscow Active 112 / 95 40% 1 22.01.2027 -
Rodrigo Bogarín Barracas Central Active 117 / 125 40% 1 20.01.2027 -
Robert Murić Floriana Active 92 / 114 40% 1 17.01.2027 -
Carlos Guerreño Slavia Sofia Active 114 / 104 40% 1 17.01.2027 -
Yeangel Montero Naxxar Lions Active 116 / 106 40% 1 15.01.2027 -
Gabriel Charpentier Cracovia Active 120 / 99 40% 1 13.01.2027 -
Santiago Rodríguez Gimnasia y Esgrima Active 116 / 109 40% 1 06.01.2027 -
Alan Soñora Cerro Porteno Active 116 / 113 40% 2 09.08.2026 -
Mauricio Márquez Caracas Active 99 / 104 40% 1 09.08.2026 -
Capa Ceuta Active 105 / 84 40% 1 09.08.2026 -
Lucas Sanabria Libertad Active 117 / 100 40% 1 08.08.2026 -
Alejandro Samudio Nacional Active 107 / 116 40% 1 08.08.2026 -
George Ayine Metropolitanos Active 98 / 100 40% 1 07.08.2026 -
Marcos Cuenca Zaragoza Active 95 / 114 40% 1 07.08.2026 -
Héber García Portuguesa Active 101 / 89 40% 1 07.08.2026 -
Jean Franco Fuentes Metropolitanos Active 107 / 113 40% 1 06.08.2026 -
Nelson Cabanillas Melgar Active 112 / 111 40% 1 06.08.2026 -
Luis Guevara Real Cartagena Active 99 / 109 40% 1 04.08.2026 -
Gonzalo Errecalde Gimnasia La Plata Active 117 / 119 40% 1 03.08.2026 -
Mateo Seoane Gimnasia La Plata Active 118 / 119 40% 1 03.08.2026 -
Maximiliano Luayza Koot Tristán Suárez Active 104 / 101 40% 1 02.08.2026 -
Gino Barbieri Almagro Active 103 / 106 40% 1 02.08.2026 -
David López Mallorca Active 120 / 104 40% 1 02.08.2026 -
Paolo Reyna Universitario Active 118 / 128 40% 1 01.08.2026 -
Fermín Antonini Gimnasia y Esgrima Active 110 / 117 40% 1 01.08.2026 -